Ayr Dpi Research Station, Queensland

6:47 AM AEST on December 22, 2014 (GMT +1000)
On The Edge of The sugar cane in Ayr, Qld | Change Station
CLOSE
Current Station
Personal Weather Station
Location: Ayr, QLD
Elevation: 39 ft
Nearby Weather Stations

Elev 39 ft 19.58 °S, 147.42 °E | Updated 0 second ago

Partly Cloudy
Partly Cloudy
80.5 °F
Feels Like 84 °F
N
2.0
Wind Variable Wind from SSE
Gusts 6.0 mph

Today
High -- | Low -- °F
--% Chance of Precip.
Yesterday
High -- | Low -- °F
Precip. -- in
5:29 AM 6:48 PM
Waning Crescent, 0% visible
Pressure 29.89 in
Visibility 6.2 miles
Clouds Few 2500 ft
Heat Index 84 °F
Dew Point 71 °F
Humidity 72%
Rainfall 0.00 in
Snow Depth Not available.
UV 1 out of 12
Pollen Not available.
Air Quality Not available.
Flu Activity Not available.
METAR YBTL 212030Z 13008KT 9999 FEW025 26/20 Q1012 RMK HZ

More Conditions Fewer Conditions

Pressure 29.89 in
Visibility 6.2 miles
Clouds Few 2500 ft
Heat Index 84 °F
Dew Point 71 °F
Humidity 72%
Rainfall 0.00 in
Snow Depth Not available.
UV 1 out of 12
Pollen Not available.
Air Quality Not available.
Flu Activity Not available.
METAR YBTL 212030Z 13008KT 9999 FEW025 26/20 Q1012 RMK HZ

More Conditions Fewer Conditions

10-Day Weather Forecast

Almanac

Astronomy

Dec. 22, 2014 Rise Set
Actual Time
Civil Twilight
Nautical Twilight
Astronomical Twilight
Moon
Length of Visible Light
Length of Day
Tomorrow will be .
, % of the Moon is Illuminated

Today's Extremes

Country Highs Country Lows

Community

WunderPhotos

Upload Photos

1,779,471 photos uploaded!

WunderBlogs® & News

Nearby

Air Quality

  Air Quality AQ Index Pollutant
Not available.

Snow Depth

Station Depth Elevation

Earthquake Activity

City Distance Mag. Time & Date
Minimum magnitude displayed is 2.5.

Coastal Water Temperatures

Place Temperature

Nearby Weather Stations